LGRPLGIR

Guest
Details From LGRP - DIAGORAS
To LGIR - Iraklion - Nizos Kazantzakis
Flight Number -
Tags generated
Created
Modified
Stats Distance 155 nm / 288 km
Max Altitude 18,100 ft / 5,517 m
Waypoints 3
Social Downloads 1
Likes 0
Share VATSIM

Download

Looking for another format? Having issues loading an existing format? Contact us
Advertisement - Login to hide

Notes

Basic altitude profile: - Ascent Rate: 2500ft/min - Ascent Speed: 250kts - Cruise Altitude: 240ft - Cruise Speed: 420kts - Descent Rate: 1500ft/min - Descent Speed: 250kts Options: - Use NATs: yes - Use PACOTS: yes - Use low airways: yes - Use high airways: yes

Route

LGRP TIPAS LGIR

ID Type Via Altitude Latitude Longitude Leg Dist Tot Dist Heading (true) Name
O LGRP APT - 0 ft / 0 m 36.40542˚ 28.08619˚ - 0 nm - DIAGORAS
TIPAS FIX - 18,100 ft / 5,517 m 35.90778˚ 26.76333˚ 70 nm 70 nm 245° / 245° -
O LGIR APT - 0 ft / 0 m 35.33949˚ 25.18012˚ 84 nm 155 nm 247° / 246° Iraklion - Nizos Kazantzakis

Altitude Profile

Advertisement - Login to hide

LGRP

Details ICAO LGRP (RHO)
Name DIAGORAS
Region Greece
Timezone Europe/Athens (UTC+2.0)
Stats Elevation 17 ft / 5 m (AMSL)
Location 36.405420° 28.086193°
Runways 1
Magnetic Variation 4.780° E

METAR

LGRP 131250Z 26017KT 9999 FEW015 19/14 Q1018 NOSIG

Decode

TAF

TAF LGRP 131100Z 1312/1412 29015KT 9999 FEW015 TEMPO 1312/1412 FEW015 SCT050

Decode

Departure Runways

ID Width Length Bearing (true) Bearing (mag) Surface Threshold Offset Overrun Length
07 148 ft / 45 m 10,830 ft / 3,301 m 69.97° 65.19° Asphalt 0 ft / 0 m 0 ft / 0 m
25 148 ft / 45 m 10,830 ft / 3,301 m 249.99° 245.21° Asphalt 0 ft / 0 m 0 ft / 0 m

LGIR

Details ICAO LGIR (HER)
Name Iraklion - Nizos Kazantzakis
Region Greece
Timezone Europe/Athens (UTC+2.0)
Stats Elevation 115 ft / 35 m (AMSL)
Location 35.339487° 25.180120°
Runways 3
Magnetic Variation 4.379° E

METAR

LGIR 131250Z 30012KT 9999 FEW025 19/14 Q1021 NOSIG

Decode

TAF

TAF LGIR 131100Z 1312/1412 31015KT 9999 FEW020 BECMG 1316/1318 24008KT TEMPO 1312/1318 FEW018 SCT025

Decode

Destination Runways

ID Width Length Bearing (true) Bearing (mag) Surface Threshold Offset Overrun Length
09 148 ft / 45 m 8,755 ft / 2,669 m 94.84° 90.46° Asphalt 1,565 ft / 477 m 200 ft / 61 m
12 164 ft / 50 m 5,136 ft / 1,566 m 126.27° 121.89° Asphalt 499 ft / 152 m 190 ft / 58 m
18 131 ft / 40 m 2,607 ft / 795 m 180.40° 176.02° Asphalt 0 ft / 0 m 0 ft / 0 m
27 148 ft / 45 m 8,755 ft / 2,669 m 274.86° 270.48° Asphalt 0 ft / 0 m 210 ft / 64 m
30 164 ft / 50 m 5,136 ft / 1,566 m 306.28° 301.90° Asphalt 0 ft / 0 m 0 ft / 0 m
36 131 ft / 40 m 2,607 ft / 795 m 0.40° 356.02° Asphalt 328 ft / 100 m 0 ft / 0 m

Popular Alternatives